sensor_id;sensor_type;location;lat;lon;timestamp;P1;durP1;ratioP1;P2;durP2;ratioP2
261;SDS011;114;48.260;10.988;2023-10-31T00:01:52;1.63;;;1.53;;
261;SDS011;114;48.260;10.988;2023-10-31T00:04:18;1.17;;;0.90;;
261;SDS011;114;48.260;10.988;2023-10-31T00:06:43;1.63;;;1.53;;
261;SDS011;114;48.260;10.988;2023-10-31T00:09:09;0.70;;;0.70;;
261;SDS011;114;48.260;10.988;2023-10-31T00:11:38;0.83;;;0.60;;
261;SDS011;114;48.260;10.988;2023-10-31T00:14:08;0.60;;;0.60;;
261;SDS011;114;48.260;10.988;2023-10-31T00:16:33;1.60;;;0.40;;
261;SDS011;114;48.260;10.988;2023-10-31T00:18:59;2.70;;;0.50;;
261;SDS011;114;48.260;10.988;2023-10-31T00:21:25;0.40;;;0.40;;
261;SDS011;114;48.260;10.988;2023-10-31T00:23:50;0.70;;;0.50;;
261;SDS011;114;48.260;10.988;2023-10-31T00:26:16;0.50;;;0.50;;
261;SDS011;114;48.260;10.988;2023-10-31T00:28:42;0.40;;;0.40;;
261;SDS011;114;48.260;10.988;2023-10-31T00:31:08;0.40;;;0.40;;
261;SDS011;114;48.260;10.988;2023-10-31T00:33:36;3.33;;;0.60;;
261;SDS011;114;48.260;10.988;2023-10-31T00:36:05;0.70;;;0.57;;
261;SDS011;114;48.260;10.988;2023-10-31T00:38:31;0.47;;;0.47;;
261;SDS011;114;48.260;10.988;2023-10-31T00:40:58;0.70;;;0.70;;
261;SDS011;114;48.260;10.988;2023-10-31T00:43:24;5.13;;;1.23;;
261;SDS011;114;48.260;10.988;2023-10-31T00:45:50;0.50;;;0.43;;
261;SDS011;114;48.260;10.988;2023-10-31T00:48:15;0.67;;;0.67;;
261;SDS011;114;48.260;10.988;2023-10-31T00:50:41;0.50;;;0.50;;
261;SDS011;114;48.260;10.988;2023-10-31T00:53:08;0.63;;;0.63;;
261;SDS011;114;48.260;10.988;2023-10-31T00:55:34;0.50;;;0.50;;
261;SDS011;114;48.260;10.988;2023-10-31T00:57:59;0.73;;;0.43;;
261;SDS011;114;48.260;10.988;2023-10-31T01:00:25;0.50;;;0.50;;
261;SDS011;114;48.260;10.988;2023-10-31T01:02:51;0.50;;;0.50;;
261;SDS011;114;48.260;10.988;2023-10-31T01:05:17;0.70;;;0.60;;
261;SDS011;114;48.260;10.988;2023-10-31T01:07:42;0.60;;;0.60;;
261;SDS011;114;48.260;10.988;2023-10-31T01:10:08;0.50;;;0.50;;
261;SDS011;114;48.260;10.988;2023-10-31T01:12:36;0.87;;;0.63;;
261;SDS011;114;48.260;10.988;2023-10-31T01:15:02;0.43;;;0.40;;
261;SDS011;114;48.260;10.988;2023-10-31T01:17:28;0.60;;;0.40;;
261;SDS011;114;48.260;10.988;2023-10-31T01:19:54;0.70;;;0.70;;
261;SDS011;114;48.260;10.988;2023-10-31T01:22:19;0.40;;;0.30;;
261;SDS011;114;48.260;10.988;2023-10-31T01:24:45;0.33;;;0.30;;
261;SDS011;114;48.260;10.988;2023-10-31T01:27:11;0.67;;;0.30;;
261;SDS011;114;48.260;10.988;2023-10-31T01:29:36;0.30;;;0.30;;
261;SDS011;114;48.260;10.988;2023-10-31T01:32:02;0.40;;;0.30;;
261;SDS011;114;48.260;10.988;2023-10-31T01:34:28;0.40;;;0.40;;
261;SDS011;114;48.260;10.988;2023-10-31T01:36:54;0.33;;;0.30;;
261;SDS011;114;48.260;10.988;2023-10-31T01:39:20;0.40;;;0.40;;
261;SDS011;114;48.260;10.988;2023-10-31T01:41:45;0.40;;;0.40;;
261;SDS011;114;48.260;10.988;2023-10-31T01:44:11;0.30;;;0.30;;
261;SDS011;114;48.260;10.988;2023-10-31T01:46:37;0.40;;;0.30;;
261;SDS011;114;48.260;10.988;2023-10-31T01:49:03;0.40;;;0.30;;
261;SDS011;114;48.260;10.988;2023-10-31T01:51:29;1.00;;;0.30;;
261;SDS011;114;48.260;10.988;2023-10-31T01:53:55;0.60;;;0.30;;
261;SDS011;114;48.260;10.988;2023-10-31T01:56:22;0.60;;;0.30;;
261;SDS011;114;48.260;10.988;2023-10-31T01:58:48;0.30;;;0.20;;
261;SDS011;114;48.260;10.988;2023-10-31T02:01:14;0.40;;;0.30;;
261;SDS011;114;48.260;10.988;2023-10-31T02:03:41;0.50;;;0.30;;
261;SDS011;114;48.260;10.988;2023-10-31T02:06:06;0.30;;;0.20;;
261;SDS011;114;48.260;10.988;2023-10-31T02:08:32;0.50;;;0.37;;
261;SDS011;114;48.260;10.988;2023-10-31T02:10:58;0.40;;;0.30;;
261;SDS011;114;48.260;10.988;2023-10-31T02:13:24;2.10;;;0.40;;
261;SDS011;114;48.260;10.988;2023-10-31T02:15:50;0.30;;;0.30;;
261;SDS011;114;48.260;10.988;2023-10-31T02:18:17;0.40;;;0.30;;
261;SDS011;114;48.260;10.988;2023-10-31T02:20:43;0.47;;;0.30;;
261;SDS011;114;48.260;10.988;2023-10-31T02:23:09;0.47;;;0.37;;
261;SDS011;114;48.260;10.988;2023-10-31T02:25:35;0.50;;;0.50;;
261;SDS011;114;48.260;10.988;2023-10-31T02:28:01;0.50;;;0.30;;
261;SDS011;114;48.260;10.988;2023-10-31T02:30:26;0.30;;;0.30;;
261;SDS011;114;48.260;10.988;2023-10-31T02:32:52;0.50;;;0.40;;
261;SDS011;114;48.260;10.988;2023-10-31T02:35:18;0.40;;;0.30;;
261;SDS011;114;48.260;10.988;2023-10-31T02:37:45;0.50;;;0.30;;
261;SDS011;114;48.260;10.988;2023-10-31T02:40:11;1.67;;;0.67;;
261;SDS011;114;48.260;10.988;2023-10-31T02:42:37;0.60;;;0.30;;
261;SDS011;114;48.260;10.988;2023-10-31T02:45:03;0.40;;;0.30;;
261;SDS011;114;48.260;10.988;2023-10-31T02:47:29;0.33;;;0.30;;
261;SDS011;114;48.260;10.988;2023-10-31T02:49:55;0.30;;;0.30;;
261;SDS011;114;48.260;10.988;2023-10-31T02:52:21;0.57;;;0.30;;
261;SDS011;114;48.260;10.988;2023-10-31T02:54:47;0.60;;;0.30;;
261;SDS011;114;48.260;10.988;2023-10-31T02:57:13;0.70;;;0.40;;
261;SDS011;114;48.260;10.988;2023-10-31T02:59:39;0.43;;;0.30;;
261;SDS011;114;48.260;10.988;2023-10-31T03:02:05;0.40;;;0.40;;
261;SDS011;114;48.260;10.988;2023-10-31T03:04:31;0.30;;;0.30;;
261;SDS011;114;48.260;10.988;2023-10-31T03:06:56;1.00;;;0.30;;
261;SDS011;114;48.260;10.988;2023-10-31T03:09:22;0.97;;;0.40;;
261;SDS011;114;48.260;10.988;2023-10-31T03:11:48;0.30;;;0.30;;
261;SDS011;114;48.260;10.988;2023-10-31T03:14:14;0.50;;;0.30;;
261;SDS011;114;48.260;10.988;2023-10-31T03:16:40;0.90;;;0.40;;
261;SDS011;114;48.260;10.988;2023-10-31T03:19:06;0.40;;;0.30;;
261;SDS011;114;48.260;10.988;2023-10-31T03:21:32;1.33;;;0.50;;
261;SDS011;114;48.260;10.988;2023-10-31T03:23:58;0.70;;;0.70;;
261;SDS011;114;48.260;10.988;2023-10-31T03:26:24;1.47;;;0.37;;
261;SDS011;114;48.260;10.988;2023-10-31T03:28:50;2.10;;;0.40;;
261;SDS011;114;48.260;10.988;2023-10-31T03:31:16;0.40;;;0.30;;
261;SDS011;114;48.260;10.988;2023-10-31T03:33:42;0.60;;;0.30;;
261;SDS011;114;48.260;10.988;2023-10-31T03:36:08;5.00;;;0.30;;
261;SDS011;114;48.260;10.988;2023-10-31T03:38:35;0.70;;;0.40;;
261;SDS011;114;48.260;10.988;2023-10-31T03:41:01;1.03;;;0.40;;
261;SDS011;114;48.260;10.988;2023-10-31T03:43:27;0.80;;;0.40;;
261;SDS011;114;48.260;10.988;2023-10-31T03:45:53;2.13;;;0.50;;
261;SDS011;114;48.260;10.988;2023-10-31T03:48:19;0.97;;;0.50;;
261;SDS011;114;48.260;10.988;2023-10-31T03:50:45;1.33;;;0.40;;
261;SDS011;114;48.260;10.988;2023-10-31T03:53:11;0.53;;;0.50;;
261;SDS011;114;48.260;10.988;2023-10-31T03:55:36;0.50;;;0.50;;
261;SDS011;114;48.260;10.988;2023-10-31T03:58:02;1.10;;;0.60;;
261;SDS011;114;48.260;10.988;2023-10-31T04:00:28;1.90;;;0.40;;
261;SDS011;114;48.260;10.988;2023-10-31T04:02:55;1.07;;;0.47;;
261;SDS011;114;48.260;10.988;2023-10-31T04:05:20;4.77;;;0.50;;
261;SDS011;114;48.260;10.988;2023-10-31T04:07:48;2.23;;;0.40;;
261;SDS011;114;48.260;10.988;2023-10-31T04:10:14;0.67;;;0.60;;
261;SDS011;114;48.260;10.988;2023-10-31T04:12:41;0.70;;;0.50;;
261;SDS011;114;48.260;10.988;2023-10-31T04:15:07;1.63;;;0.60;;
261;SDS011;114;48.260;10.988;2023-10-31T04:17:33;2.63;;;0.70;;
261;SDS011;114;48.260;10.988;2023-10-31T04:19:59;0.60;;;0.40;;
261;SDS011;114;48.260;10.988;2023-10-31T04:22:25;0.50;;;0.47;;
261;SDS011;114;48.260;10.988;2023-10-31T04:24:51;3.47;;;0.60;;
261;SDS011;114;48.260;10.988;2023-10-31T04:27:17;0.90;;;0.40;;
261;SDS011;114;48.260;10.988;2023-10-31T04:29:43;1.10;;;0.50;;
261;SDS011;114;48.260;10.988;2023-10-31T04:32:09;0.40;;;0.40;;
261;SDS011;114;48.260;10.988;2023-10-31T04:34:35;1.70;;;0.60;;
261;SDS011;114;48.260;10.988;2023-10-31T04:37:01;0.40;;;0.37;;
261;SDS011;114;48.260;10.988;2023-10-31T04:39:27;3.30;;;0.70;;
261;SDS011;114;48.260;10.988;2023-10-31T04:41:52;1.00;;;0.60;;
261;SDS011;114;48.260;10.988;2023-10-31T04:44:18;0.90;;;0.40;;
261;SDS011;114;48.260;10.988;2023-10-31T04:46:44;1.43;;;0.67;;
261;SDS011;114;48.260;10.988;2023-10-31T04:49:10;1.23;;;0.70;;
261;SDS011;114;48.260;10.988;2023-10-31T04:51:36;1.27;;;0.70;;
261;SDS011;114;48.260;10.988;2023-10-31T04:54:02;1.33;;;0.60;;
261;SDS011;114;48.260;10.988;2023-10-31T04:56:28;3.03;;;0.70;;
261;SDS011;114;48.260;10.988;2023-10-31T04:58:54;0.60;;;0.40;;
261;SDS011;114;48.260;10.988;2023-10-31T05:01:20;0.60;;;0.60;;
261;SDS011;114;48.260;10.988;2023-10-31T05:03:46;1.60;;;0.60;;
261;SDS011;114;48.260;10.988;2023-10-31T05:06:11;0.70;;;0.50;;
261;SDS011;114;48.260;10.988;2023-10-31T05:08:37;1.87;;;0.40;;
261;SDS011;114;48.260;10.988;2023-10-31T05:11:03;1.60;;;0.60;;
261;SDS011;114;48.260;10.988;2023-10-31T05:13:29;1.00;;;0.70;;
261;SDS011;114;48.260;10.988;2023-10-31T05:15:54;1.33;;;0.40;;
261;SDS011;114;48.260;10.988;2023-10-31T05:18:20;0.77;;;0.70;;
261;SDS011;114;48.260;10.988;2023-10-31T05:20:46;1.80;;;0.50;;
261;SDS011;114;48.260;10.988;2023-10-31T05:23:12;0.80;;;0.50;;
261;SDS011;114;48.260;10.988;2023-10-31T05:25:38;2.30;;;0.60;;
261;SDS011;114;48.260;10.988;2023-10-31T05:28:04;2.27;;;0.50;;
261;SDS011;114;48.260;10.988;2023-10-31T05:30:30;2.20;;;0.53;;
261;SDS011;114;48.260;10.988;2023-10-31T05:32:56;0.70;;;0.47;;
261;SDS011;114;48.260;10.988;2023-10-31T05:35:22;1.70;;;0.40;;
261;SDS011;114;48.260;10.988;2023-10-31T05:37:48;0.60;;;0.40;;
261;SDS011;114;48.260;10.988;2023-10-31T05:40:14;0.40;;;0.40;;
261;SDS011;114;48.260;10.988;2023-10-31T05:42:41;3.70;;;0.70;;
261;SDS011;114;48.260;10.988;2023-10-31T05:45:06;0.80;;;0.47;;
261;SDS011;114;48.260;10.988;2023-10-31T05:47:32;1.33;;;0.43;;
261;SDS011;114;48.260;10.988;2023-10-31T05:49:58;1.67;;;0.40;;
261;SDS011;114;48.260;10.988;2023-10-31T05:52:30;1.23;;;0.40;;
261;SDS011;114;48.260;10.988;2023-10-31T05:54:57;1.63;;;0.60;;
261;SDS011;114;48.260;10.988;2023-10-31T05:57:23;1.60;;;0.50;;
261;SDS011;114;48.260;10.988;2023-10-31T05:59:49;0.73;;;0.50;;
261;SDS011;114;48.260;10.988;2023-10-31T06:02:15;0.50;;;0.40;;
261;SDS011;114;48.260;10.988;2023-10-31T06:04:40;1.00;;;0.43;;
261;SDS011;114;48.260;10.988;2023-10-31T06:07:06;1.00;;;0.47;;
261;SDS011;114;48.260;10.988;2023-10-31T06:09:32;2.30;;;0.70;;
261;SDS011;114;48.260;10.988;2023-10-31T06:12:02;1.90;;;0.80;;
261;SDS011;114;48.260;10.988;2023-10-31T06:14:31;2.00;;;0.60;;
261;SDS011;114;48.260;10.988;2023-10-31T06:16:57;7.37;;;0.80;;
261;SDS011;114;48.260;10.988;2023-10-31T06:19:24;0.90;;;0.40;;
261;SDS011;114;48.260;10.988;2023-10-31T06:21:50;1.33;;;0.50;;
261;SDS011;114;48.260;10.988;2023-10-31T06:24:15;3.67;;;0.60;;
261;SDS011;114;48.260;10.988;2023-10-31T06:26:41;2.87;;;0.77;;
261;SDS011;114;48.260;10.988;2023-10-31T06:29:07;0.80;;;0.70;;
261;SDS011;114;48.260;10.988;2023-10-31T06:31:32;0.67;;;0.67;;
261;SDS011;114;48.260;10.988;2023-10-31T06:33:58;3.90;;;1.03;;
261;SDS011;114;48.260;10.988;2023-10-31T06:36:24;0.70;;;0.40;;
261;SDS011;114;48.260;10.988;2023-10-31T06:38:49;0.90;;;0.43;;
261;SDS011;114;48.260;10.988;2023-10-31T06:41:15;1.73;;;0.40;;
261;SDS011;114;48.260;10.988;2023-10-31T06:43:41;2.40;;;0.60;;
261;SDS011;114;48.260;10.988;2023-10-31T06:46:06;3.03;;;0.60;;
261;SDS011;114;48.260;10.988;2023-10-31T06:48:33;4.00;;;1.20;;
261;SDS011;114;48.260;10.988;2023-10-31T06:50:59;0.90;;;0.60;;
261;SDS011;114;48.260;10.988;2023-10-31T06:53:24;1.90;;;0.70;;
261;SDS011;114;48.260;10.988;2023-10-31T06:55:50;0.77;;;0.53;;
261;SDS011;114;48.260;10.988;2023-10-31T06:58:16;1.03;;;0.63;;
261;SDS011;114;48.260;10.988;2023-10-31T07:00:41;6.40;;;1.20;;
261;SDS011;114;48.260;10.988;2023-10-31T07:03:07;2.40;;;0.67;;
261;SDS011;114;48.260;10.988;2023-10-31T07:05:40;1.17;;;1.00;;
261;SDS011;114;48.260;10.988;2023-10-31T07:08:06;3.07;;;0.80;;
261;SDS011;114;48.260;10.988;2023-10-31T07:10:32;1.50;;;0.70;;
261;SDS011;114;48.260;10.988;2023-10-31T07:12:58;2.00;;;0.60;;
261;SDS011;114;48.260;10.988;2023-10-31T07:15:25;2.60;;;0.60;;
261;SDS011;114;48.260;10.988;2023-10-31T07:17:51;1.20;;;0.50;;
261;SDS011;114;48.260;10.988;2023-10-31T07:20:16;0.70;;;0.50;;
261;SDS011;114;48.260;10.988;2023-10-31T07:22:42;1.27;;;0.60;;
261;SDS011;114;48.260;10.988;2023-10-31T07:25:08;6.33;;;1.00;;
261;SDS011;114;48.260;10.988;2023-10-31T07:27:34;0.80;;;0.47;;
261;SDS011;114;48.260;10.988;2023-10-31T07:30:01;1.03;;;0.80;;
261;SDS011;114;48.260;10.988;2023-10-31T07:32:29;0.60;;;0.40;;
261;SDS011;114;48.260;10.988;2023-10-31T07:34:54;1.27;;;0.60;;
261;SDS011;114;48.260;10.988;2023-10-31T07:37:20;5.60;;;0.90;;
261;SDS011;114;48.260;10.988;2023-10-31T07:39:46;1.73;;;0.73;;
261;SDS011;114;48.260;10.988;2023-10-31T07:42:11;2.73;;;0.70;;
261;SDS011;114;48.260;10.988;2023-10-31T07:44:37;7.13;;;0.60;;
261;SDS011;114;48.260;10.988;2023-10-31T07:47:03;3.10;;;0.83;;
261;SDS011;114;48.260;10.988;2023-10-31T07:49:29;4.50;;;1.17;;
261;SDS011;114;48.260;10.988;2023-10-31T07:51:54;0.93;;;0.57;;
261;SDS011;114;48.260;10.988;2023-10-31T07:54:20;0.73;;;0.60;;
261;SDS011;114;48.260;10.988;2023-10-31T07:56:46;6.10;;;0.50;;
261;SDS011;114;48.260;10.988;2023-10-31T07:59:12;2.10;;;0.50;;
261;SDS011;114;48.260;10.988;2023-10-31T08:01:38;0.93;;;0.73;;
261;SDS011;114;48.260;10.988;2023-10-31T08:04:03;1.60;;;1.20;;
261;SDS011;114;48.260;10.988;2023-10-31T08:06:29;3.40;;;0.77;;
261;SDS011;114;48.260;10.988;2023-10-31T08:08:55;3.30;;;1.03;;
261;SDS011;114;48.260;10.988;2023-10-31T08:11:22;2.90;;;0.67;;
261;SDS011;114;48.260;10.988;2023-10-31T08:13:47;4.30;;;0.73;;
261;SDS011;114;48.260;10.988;2023-10-31T08:16:17;1.87;;;0.83;;
261;SDS011;114;48.260;10.988;2023-10-31T08:18:46;3.03;;;0.67;;
261;SDS011;114;48.260;10.988;2023-10-31T08:21:13;9.00;;;0.93;;
261;SDS011;114;48.260;10.988;2023-10-31T08:23:38;2.63;;;1.20;;
261;SDS011;114;48.260;10.988;2023-10-31T08:26:04;5.50;;;0.83;;
261;SDS011;114;48.260;10.988;2023-10-31T08:28:30;1.20;;;0.60;;
261;SDS011;114;48.260;10.988;2023-10-31T08:30:57;2.80;;;0.63;;
261;SDS011;114;48.260;10.988;2023-10-31T08:33:23;6.63;;;0.90;;
261;SDS011;114;48.260;10.988;2023-10-31T08:35:49;2.93;;;0.60;;
261;SDS011;114;48.260;10.988;2023-10-31T08:38:16;1.10;;;0.50;;
261;SDS011;114;48.260;10.988;2023-10-31T08:40:42;2.37;;;0.93;;
261;SDS011;114;48.260;10.988;2023-10-31T08:43:07;2.50;;;0.60;;
261;SDS011;114;48.260;10.988;2023-10-31T08:45:33;6.40;;;0.70;;
261;SDS011;114;48.260;10.988;2023-10-31T08:47:59;0.60;;;0.57;;
261;SDS011;114;48.260;10.988;2023-10-31T08:50:25;1.70;;;0.50;;
261;SDS011;114;48.260;10.988;2023-10-31T08:52:51;1.30;;;0.57;;
261;SDS011;114;48.260;10.988;2023-10-31T08:55:17;2.00;;;0.70;;
261;SDS011;114;48.260;10.988;2023-10-31T08:57:43;7.10;;;1.93;;
261;SDS011;114;48.260;10.988;2023-10-31T09:00:09;9.63;;;0.80;;
261;SDS011;114;48.260;10.988;2023-10-31T09:02:35;1.27;;;0.73;;
261;SDS011;114;48.260;10.988;2023-10-31T09:05:01;2.00;;;0.63;;
261;SDS011;114;48.260;10.988;2023-10-31T09:07:26;3.63;;;0.80;;
261;SDS011;114;48.260;10.988;2023-10-31T09:09:52;2.90;;;0.70;;
261;SDS011;114;48.260;10.988;2023-10-31T09:12:18;1.80;;;0.67;;
261;SDS011;114;48.260;10.988;2023-10-31T09:14:44;4.63;;;0.70;;
261;SDS011;114;48.260;10.988;2023-10-31T09:17:10;3.40;;;1.93;;
261;SDS011;114;48.260;10.988;2023-10-31T09:19:36;6.60;;;0.83;;
261;SDS011;114;48.260;10.988;2023-10-31T09:22:01;1.20;;;0.50;;
261;SDS011;114;48.260;10.988;2023-10-31T09:24:27;1.83;;;0.70;;
261;SDS011;114;48.260;10.988;2023-10-31T09:26:53;2.70;;;0.60;;
261;SDS011;114;48.260;10.988;2023-10-31T09:29:18;4.07;;;0.80;;
261;SDS011;114;48.260;10.988;2023-10-31T09:31:44;1.70;;;0.47;;
261;SDS011;114;48.260;10.988;2023-10-31T09:34:10;4.87;;;0.83;;
261;SDS011;114;48.260;10.988;2023-10-31T09:36:35;1.47;;;0.67;;
261;SDS011;114;48.260;10.988;2023-10-31T09:39:01;2.80;;;0.60;;
261;SDS011;114;48.260;10.988;2023-10-31T09:41:28;2.30;;;0.70;;
261;SDS011;114;48.260;10.988;2023-10-31T09:43:54;10.40;;;1.00;;
261;SDS011;114;48.260;10.988;2023-10-31T09:46:21;2.27;;;0.70;;
261;SDS011;114;48.260;10.988;2023-10-31T09:48:47;2.20;;;0.83;;
261;SDS011;114;48.260;10.988;2023-10-31T09:51:14;2.50;;;0.67;;
261;SDS011;114;48.260;10.988;2023-10-31T09:53:40;1.27;;;0.47;;
261;SDS011;114;48.260;10.988;2023-10-31T09:56:10;2.50;;;0.47;;
261;SDS011;114;48.260;10.988;2023-10-31T09:58:36;4.27;;;0.90;;
261;SDS011;114;48.260;10.988;2023-10-31T10:01:02;8.90;;;0.57;;
261;SDS011;114;48.260;10.988;2023-10-31T10:03:28;2.80;;;0.50;;
261;SDS011;114;48.260;10.988;2023-10-31T10:05:54;1.37;;;0.60;;
261;SDS011;114;48.260;10.988;2023-10-31T10:08:20;3.20;;;0.90;;
261;SDS011;114;48.260;10.988;2023-10-31T10:10:46;3.47;;;0.87;;
261;SDS011;114;48.260;10.988;2023-10-31T10:13:16;4.33;;;0.80;;
261;SDS011;114;48.260;10.988;2023-10-31T10:15:44;3.93;;;1.17;;
261;SDS011;114;48.260;10.988;2023-10-31T10:18:10;4.40;;;0.60;;
261;SDS011;114;48.260;10.988;2023-10-31T10:20:56;1.73;;;0.63;;
261;SDS011;114;48.260;10.988;2023-10-31T10:23:24;9.70;;;0.80;;
261;SDS011;114;48.260;10.988;2023-10-31T10:25:53;7.20;;;0.50;;
261;SDS011;114;48.260;10.988;2023-10-31T10:28:21;6.73;;;0.60;;
261;SDS011;114;48.260;10.988;2023-10-31T10:30:47;0.57;;;0.50;;
261;SDS011;114;48.260;10.988;2023-10-31T10:33:14;4.50;;;1.10;;
261;SDS011;114;48.260;10.988;2023-10-31T10:35:40;5.17;;;0.80;;
261;SDS011;114;48.260;10.988;2023-10-31T10:38:10;1.60;;;0.60;;
261;SDS011;114;48.260;10.988;2023-10-31T10:40:40;3.67;;;0.60;;
261;SDS011;114;48.260;10.988;2023-10-31T10:43:25;5.90;;;0.90;;
261;SDS011;114;48.260;10.988;2023-10-31T10:45:55;0.90;;;0.57;;
261;SDS011;114;48.260;10.988;2023-10-31T10:48:22;0.90;;;0.70;;
261;SDS011;114;48.260;10.988;2023-10-31T10:50:57;0.80;;;0.53;;
261;SDS011;114;48.260;10.988;2023-10-31T10:53:29;1.70;;;0.50;;
261;SDS011;114;48.260;10.988;2023-10-31T10:56:03;1.60;;;0.77;;
261;SDS011;114;48.260;10.988;2023-10-31T10:59:25;7.87;;;0.80;;
261;SDS011;114;48.260;10.988;2023-10-31T11:01:34;1.00;;;0.50;;
261;SDS011;114;48.260;10.988;2023-10-31T11:04:02;2.33;;;0.60;;
261;SDS011;114;48.260;10.988;2023-10-31T11:06:30;1.87;;;0.50;;
261;SDS011;114;48.260;10.988;2023-10-31T11:08:56;3.40;;;0.70;;
261;SDS011;114;48.260;10.988;2023-10-31T11:11:23;3.90;;;1.80;;
261;SDS011;114;48.260;10.988;2023-10-31T11:13:52;4.00;;;1.07;;
261;SDS011;114;48.260;10.988;2023-10-31T11:16:35;7.43;;;0.90;;
261;SDS011;114;48.260;10.988;2023-10-31T11:19:02;2.77;;;1.00;;
261;SDS011;114;48.260;10.988;2023-10-31T11:21:29;2.10;;;0.80;;
261;SDS011;114;48.260;10.988;2023-10-31T11:23:58;1.67;;;0.70;;
261;SDS011;114;48.260;10.988;2023-10-31T11:26:29;1.90;;;0.80;;
261;SDS011;114;48.260;10.988;2023-10-31T11:29:05;1.93;;;0.57;;
261;SDS011;114;48.260;10.988;2023-10-31T11:31:31;1.53;;;0.50;;
261;SDS011;114;48.260;10.988;2023-10-31T11:34:01;1.50;;;0.60;;
261;SDS011;114;48.260;10.988;2023-10-31T11:36:30;7.97;;;1.20;;
261;SDS011;114;48.260;10.988;2023-10-31T11:39:14;5.83;;;1.30;;
261;SDS011;114;48.260;10.988;2023-10-31T11:41:45;10.33;;;2.37;;
261;SDS011;114;48.260;10.988;2023-10-31T11:44:17;1.53;;;1.43;;
261;SDS011;114;48.260;10.988;2023-10-31T11:46:46;5.37;;;1.40;;
261;SDS011;114;48.260;10.988;2023-10-31T11:49:16;2.50;;;0.80;;
261;SDS011;114;48.260;10.988;2023-10-31T11:51:44;11.97;;;1.10;;
261;SDS011;114;48.260;10.988;2023-10-31T11:54:11;1.67;;;0.60;;
261;SDS011;114;48.260;10.988;2023-10-31T11:56:38;2.47;;;1.67;;
261;SDS011;114;48.260;10.988;2023-10-31T11:59:05;11.20;;;5.37;;
261;SDS011;114;48.260;10.988;2023-10-31T12:01:33;1.93;;;1.70;;
261;SDS011;114;48.260;10.988;2023-10-31T12:04:09;3.03;;;2.47;;
261;SDS011;114;48.260;10.988;2023-10-31T12:06:45;7.07;;;3.00;;
261;SDS011;114;48.260;10.988;2023-10-31T12:09:11;9.73;;;3.83;;
261;SDS011;114;48.260;10.988;2023-10-31T12:11:43;7.03;;;4.17;;
261;SDS011;114;48.260;10.988;2023-10-31T12:14:10;4.30;;;3.43;;
261;SDS011;114;48.260;10.988;2023-10-31T12:16:36;3.00;;;2.00;;
261;SDS011;114;48.260;10.988;2023-10-31T12:19:05;3.70;;;1.63;;
261;SDS011;114;48.260;10.988;2023-10-31T12:21:43;3.23;;;2.20;;
261;SDS011;114;48.260;10.988;2023-10-31T12:24:13;3.70;;;2.87;;
261;SDS011;114;48.260;10.988;2023-10-31T12:26:40;2.30;;;0.80;;
261;SDS011;114;48.260;10.988;2023-10-31T12:29:08;4.60;;;1.57;;
261;SDS011;114;48.260;10.988;2023-10-31T12:31:43;2.50;;;0.93;;
261;SDS011;114;48.260;10.988;2023-10-31T12:34:13;5.20;;;1.57;;
261;SDS011;114;48.260;10.988;2023-10-31T12:36:40;2.47;;;1.50;;
261;SDS011;114;48.260;10.988;2023-10-31T12:39:09;4.93;;;0.90;;
261;SDS011;114;48.260;10.988;2023-10-31T12:41:37;6.13;;;0.80;;
261;SDS011;114;48.260;10.988;2023-10-31T12:44:04;1.53;;;0.90;;
261;SDS011;114;48.260;10.988;2023-10-31T12:46:31;1.33;;;0.53;;
261;SDS011;114;48.260;10.988;2023-10-31T12:48:57;13.23;;;0.90;;
261;SDS011;114;48.260;10.988;2023-10-31T12:51:24;1.13;;;0.70;;
261;SDS011;114;48.260;10.988;2023-10-31T12:53:53;1.33;;;1.00;;
261;SDS011;114;48.260;10.988;2023-10-31T12:56:38;4.10;;;1.00;;
261;SDS011;114;48.260;10.988;2023-10-31T12:59:05;0.70;;;0.67;;
261;SDS011;114;48.260;10.988;2023-10-31T13:01:35;2.50;;;1.07;;
261;SDS011;114;48.260;10.988;2023-10-31T13:04:04;0.87;;;0.53;;
261;SDS011;114;48.260;10.988;2023-10-31T13:06:31;1.30;;;0.70;;
261;SDS011;114;48.260;10.988;2023-10-31T13:08:56;2.00;;;0.40;;
261;SDS011;114;48.260;10.988;2023-10-31T13:11:23;1.10;;;0.50;;
261;SDS011;114;48.260;10.988;2023-10-31T13:13:52;8.30;;;0.60;;
261;SDS011;114;48.260;10.988;2023-10-31T13:16:19;1.87;;;1.00;;
261;SDS011;114;48.260;10.988;2023-10-31T13:18:45;1.23;;;0.60;;
261;SDS011;114;48.260;10.988;2023-10-31T13:21:11;2.70;;;0.80;;
261;SDS011;114;48.260;10.988;2023-10-31T13:23:40;0.60;;;0.40;;
261;SDS011;114;48.260;10.988;2023-10-31T13:26:08;0.60;;;0.57;;
261;SDS011;114;48.260;10.988;2023-10-31T13:28:34;2.67;;;0.70;;
261;SDS011;114;48.260;10.988;2023-10-31T13:31:00;2.30;;;1.07;;
261;SDS011;114;48.260;10.988;2023-10-31T13:33:27;1.00;;;0.90;;
261;SDS011;114;48.260;10.988;2023-10-31T13:35:53;1.00;;;0.63;;
261;SDS011;114;48.260;10.988;2023-10-31T13:38:19;1.67;;;0.70;;
261;SDS011;114;48.260;10.988;2023-10-31T13:40:44;0.50;;;0.30;;
261;SDS011;114;48.260;10.988;2023-10-31T13:43:10;2.73;;;0.40;;
261;SDS011;114;48.260;10.988;2023-10-31T13:45:36;0.80;;;0.80;;
261;SDS011;114;48.260;10.988;2023-10-31T13:48:02;1.57;;;1.00;;
261;SDS011;114;48.260;10.988;2023-10-31T13:50:28;1.40;;;1.27;;
261;SDS011;114;48.260;10.988;2023-10-31T13:52:54;3.10;;;0.50;;
261;SDS011;114;48.260;10.988;2023-10-31T13:55:21;1.60;;;0.50;;
261;SDS011;114;48.260;10.988;2023-10-31T13:57:48;0.60;;;0.50;;
261;SDS011;114;48.260;10.988;2023-10-31T14:00:15;0.77;;;0.50;;
261;SDS011;114;48.260;10.988;2023-10-31T14:02:41;0.90;;;0.40;;
261;SDS011;114;48.260;10.988;2023-10-31T14:05:07;2.80;;;0.70;;
261;SDS011;114;48.260;10.988;2023-10-31T14:07:33;2.90;;;1.23;;
261;SDS011;114;48.260;10.988;2023-10-31T14:10:00;1.00;;;0.73;;
261;SDS011;114;48.260;10.988;2023-10-31T14:12:26;0.83;;;0.80;;
261;SDS011;114;48.260;10.988;2023-10-31T14:14:53;3.80;;;0.70;;
261;SDS011;114;48.260;10.988;2023-10-31T14:17:20;2.30;;;0.83;;
261;SDS011;114;48.260;10.988;2023-10-31T14:19:48;2.77;;;1.07;;
261;SDS011;114;48.260;10.988;2023-10-31T14:22:13;7.83;;;1.03;;
261;SDS011;114;48.260;10.988;2023-10-31T14:24:39;0.90;;;0.87;;
261;SDS011;114;48.260;10.988;2023-10-31T14:27:05;2.20;;;0.77;;
261;SDS011;114;48.260;10.988;2023-10-31T14:29:32;2.57;;;0.90;;
261;SDS011;114;48.260;10.988;2023-10-31T14:32:08;0.70;;;0.70;;
261;SDS011;114;48.260;10.988;2023-10-31T14:34:34;4.80;;;0.40;;
261;SDS011;114;48.260;10.988;2023-10-31T14:37:00;1.53;;;1.10;;
261;SDS011;114;48.260;10.988;2023-10-31T14:39:26;6.57;;;1.23;;
261;SDS011;114;48.260;10.988;2023-10-31T14:41:52;0.50;;;0.50;;
261;SDS011;114;48.260;10.988;2023-10-31T14:44:18;2.73;;;0.70;;
261;SDS011;114;48.260;10.988;2023-10-31T14:46:45;2.50;;;2.30;;
261;SDS011;114;48.260;10.988;2023-10-31T14:49:10;5.33;;;2.23;;
261;SDS011;114;48.260;10.988;2023-10-31T14:51:36;5.83;;;1.20;;
261;SDS011;114;48.260;10.988;2023-10-31T14:54:02;3.23;;;1.00;;
261;SDS011;114;48.260;10.988;2023-10-31T14:56:28;10.03;;;1.50;;
261;SDS011;114;48.260;10.988;2023-10-31T14:58:54;2.83;;;1.00;;
261;SDS011;114;48.260;10.988;2023-10-31T15:01:20;1.63;;;1.27;;
261;SDS011;114;48.260;10.988;2023-10-31T15:03:46;2.70;;;2.50;;
261;SDS011;114;48.260;10.988;2023-10-31T15:06:12;1.20;;;1.10;;
261;SDS011;114;48.260;10.988;2023-10-31T15:08:40;1.77;;;1.30;;
261;SDS011;114;48.260;10.988;2023-10-31T15:11:06;6.03;;;1.83;;
261;SDS011;114;48.260;10.988;2023-10-31T15:13:33;1.30;;;0.87;;
261;SDS011;114;48.260;10.988;2023-10-31T15:15:58;10.57;;;1.20;;
261;SDS011;114;48.260;10.988;2023-10-31T15:18:24;2.20;;;0.90;;
261;SDS011;114;48.260;10.988;2023-10-31T15:20:50;3.90;;;1.63;;
261;SDS011;114;48.260;10.988;2023-10-31T15:23:17;3.33;;;1.50;;
261;SDS011;114;48.260;10.988;2023-10-31T15:25:42;6.93;;;1.93;;
261;SDS011;114;48.260;10.988;2023-10-31T15:28:08;8.23;;;1.10;;